sensor_id;sensor_type;location;lat;lon;timestamp;P1;durP1;ratioP1;P2;durP2;ratioP2
29280;SDS011;25048;49.590;11.026;2024-03-08T00:00:08;659.97;;;108.03;;
29280;SDS011;25048;49.590;11.026;2024-03-08T00:02:39;652.47;;;108.00;;
29280;SDS011;25048;49.590;11.026;2024-03-08T00:05:08;644.17;;;102.07;;
29280;SDS011;25048;49.590;11.026;2024-03-08T00:07:36;651.03;;;101.07;;
29280;SDS011;25048;49.590;11.026;2024-03-08T00:10:09;659.30;;;105.53;;
29280;SDS011;25048;49.590;11.026;2024-03-08T00:12:38;654.67;;;102.53;;
29280;SDS011;25048;49.590;11.026;2024-03-08T00:15:10;680.47;;;113.60;;
29280;SDS011;25048;49.590;11.026;2024-03-08T00:17:40;651.17;;;100.37;;
29280;SDS011;25048;49.590;11.026;2024-03-08T00:20:09;646.83;;;101.30;;
29280;SDS011;25048;49.590;11.026;2024-03-08T00:22:39;652.33;;;104.40;;
29280;SDS011;25048;49.590;11.026;2024-03-08T00:25:06;686.50;;;114.30;;
29280;SDS011;25048;49.590;11.026;2024-03-08T00:27:40;651.67;;;104.37;;
29280;SDS011;25048;49.590;11.026;2024-03-08T00:30:08;656.77;;;102.40;;
29280;SDS011;25048;49.590;11.026;2024-03-08T00:32:36;666.60;;;106.10;;
29280;SDS011;25048;49.590;11.026;2024-03-08T00:35:04;646.43;;;98.30;;
29280;SDS011;25048;49.590;11.026;2024-03-08T00:37:33;647.60;;;100.50;;
29280;SDS011;25048;49.590;11.026;2024-03-08T00:40:01;652.33;;;101.97;;
29280;SDS011;25048;49.590;11.026;2024-03-08T00:42:29;655.03;;;116.33;;
29280;SDS011;25048;49.590;11.026;2024-03-08T00:44:56;607.00;;;121.43;;
29280;SDS011;25048;49.590;11.026;2024-03-08T00:47:24;608.83;;;124.50;;
29280;SDS011;25048;49.590;11.026;2024-03-08T00:49:52;666.33;;;114.80;;
29280;SDS011;25048;49.590;11.026;2024-03-08T00:52:21;570.93;;;126.43;;
29280;SDS011;25048;49.590;11.026;2024-03-08T00:54:50;624.63;;;116.67;;
29280;SDS011;25048;49.590;11.026;2024-03-08T00:57:17;657.70;;;105.93;;
29280;SDS011;25048;49.590;11.026;2024-03-08T00:59:45;649.13;;;100.63;;
29280;SDS011;25048;49.590;11.026;2024-03-08T01:02:12;650.43;;;100.97;;
29280;SDS011;25048;49.590;11.026;2024-03-08T01:04:40;654.83;;;102.83;;
29280;SDS011;25048;49.590;11.026;2024-03-08T01:07:07;657.97;;;103.53;;
29280;SDS011;25048;49.590;11.026;2024-03-08T01:09:35;655.03;;;102.87;;
29280;SDS011;25048;49.590;11.026;2024-03-08T01:12:03;655.60;;;101.57;;
29280;SDS011;25048;49.590;11.026;2024-03-08T01:14:32;652.80;;;100.57;;
29280;SDS011;25048;49.590;11.026;2024-03-08T01:17:00;653.73;;;100.23;;
29280;SDS011;25048;49.590;11.026;2024-03-08T01:19:28;655.30;;;103.50;;
29280;SDS011;25048;49.590;11.026;2024-03-08T01:21:57;653.73;;;101.53;;
29280;SDS011;25048;49.590;11.026;2024-03-08T01:24:24;651.80;;;102.47;;
29280;SDS011;25048;49.590;11.026;2024-03-08T01:26:52;648.50;;;100.73;;
29280;SDS011;25048;49.590;11.026;2024-03-08T01:29:19;650.93;;;103.30;;
29280;SDS011;25048;49.590;11.026;2024-03-08T01:31:48;653.07;;;104.57;;
29280;SDS011;25048;49.590;11.026;2024-03-08T01:34:17;655.13;;;104.13;;
29280;SDS011;25048;49.590;11.026;2024-03-08T01:36:45;653.10;;;101.47;;
29280;SDS011;25048;49.590;11.026;2024-03-08T01:39:12;650.50;;;98.77;;
29280;SDS011;25048;49.590;11.026;2024-03-08T01:41:40;652.40;;;99.53;;
29280;SDS011;25048;49.590;11.026;2024-03-08T01:44:07;649.17;;;97.87;;
29280;SDS011;25048;49.590;11.026;2024-03-08T01:46:35;646.33;;;98.87;;
29280;SDS011;25048;49.590;11.026;2024-03-08T01:49:02;648.37;;;100.73;;
29280;SDS011;25048;49.590;11.026;2024-03-08T01:51:30;648.80;;;98.57;;
29280;SDS011;25048;49.590;11.026;2024-03-08T01:53:58;648.50;;;99.70;;
29280;SDS011;25048;49.590;11.026;2024-03-08T01:56:28;648.70;;;97.60;;
29280;SDS011;25048;49.590;11.026;2024-03-08T01:58:57;649.10;;;100.10;;
29280;SDS011;25048;49.590;11.026;2024-03-08T02:01:26;643.13;;;97.60;;
29280;SDS011;25048;49.590;11.026;2024-03-08T02:03:55;646.47;;;97.97;;
29280;SDS011;25048;49.590;11.026;2024-03-08T02:06:22;650.80;;;100.13;;
29280;SDS011;25048;49.590;11.026;2024-03-08T02:08:50;654.47;;;100.87;;
29280;SDS011;25048;49.590;11.026;2024-03-08T02:11:17;646.03;;;97.73;;
29280;SDS011;25048;49.590;11.026;2024-03-08T02:13:46;651.70;;;99.03;;
29280;SDS011;25048;49.590;11.026;2024-03-08T02:16:20;645.97;;;98.37;;
29280;SDS011;25048;49.590;11.026;2024-03-08T02:18:49;646.70;;;98.13;;
29280;SDS011;25048;49.590;11.026;2024-03-08T02:21:17;655.43;;;101.97;;
29280;SDS011;25048;49.590;11.026;2024-03-08T02:23:45;646.87;;;97.07;;
29280;SDS011;25048;49.590;11.026;2024-03-08T02:26:13;647.63;;;98.20;;
29280;SDS011;25048;49.590;11.026;2024-03-08T02:28:41;647.70;;;98.63;;
29280;SDS011;25048;49.590;11.026;2024-03-08T02:31:10;642.90;;;95.97;;
29280;SDS011;25048;49.590;11.026;2024-03-08T02:33:37;651.83;;;99.27;;
29280;SDS011;25048;49.590;11.026;2024-03-08T02:36:05;643.67;;;95.00;;
29280;SDS011;25048;49.590;11.026;2024-03-08T02:38:33;655.87;;;101.27;;
29280;SDS011;25048;49.590;11.026;2024-03-08T02:41:01;648.70;;;97.30;;
29280;SDS011;25048;49.590;11.026;2024-03-08T02:43:29;654.33;;;97.10;;
29280;SDS011;25048;49.590;11.026;2024-03-08T02:45:57;654.23;;;110.27;;
29280;SDS011;25048;49.590;11.026;2024-03-08T02:48:25;660.27;;;101.07;;
29280;SDS011;25048;49.590;11.026;2024-03-08T02:50:53;647.80;;;97.70;;
29280;SDS011;25048;49.590;11.026;2024-03-08T02:53:20;651.33;;;97.00;;
29280;SDS011;25048;49.590;11.026;2024-03-08T02:55:48;656.17;;;98.63;;
29280;SDS011;25048;49.590;11.026;2024-03-08T02:58:15;645.83;;;98.37;;
29280;SDS011;25048;49.590;11.026;2024-03-08T03:00:44;650.87;;;97.63;;
29280;SDS011;25048;49.590;11.026;2024-03-08T03:03:12;642.00;;;96.17;;
29280;SDS011;25048;49.590;11.026;2024-03-08T03:05:39;644.47;;;95.70;;
29280;SDS011;25048;49.590;11.026;2024-03-08T03:08:10;642.70;;;95.67;;
29280;SDS011;25048;49.590;11.026;2024-03-08T03:10:39;649.77;;;96.93;;
29280;SDS011;25048;49.590;11.026;2024-03-08T03:13:06;649.20;;;96.53;;
29280;SDS011;25048;49.590;11.026;2024-03-08T03:15:34;649.20;;;96.13;;
29280;SDS011;25048;49.590;11.026;2024-03-08T03:18:02;650.20;;;96.57;;
29280;SDS011;25048;49.590;11.026;2024-03-08T03:20:31;653.10;;;98.67;;
29280;SDS011;25048;49.590;11.026;2024-03-08T03:22:59;650.83;;;96.73;;
29280;SDS011;25048;49.590;11.026;2024-03-08T03:25:28;651.67;;;96.70;;
29280;SDS011;25048;49.590;11.026;2024-03-08T03:27:57;653.20;;;104.17;;
29280;SDS011;25048;49.590;11.026;2024-03-08T03:30:25;643.60;;;95.70;;
29280;SDS011;25048;49.590;11.026;2024-03-08T03:32:54;648.23;;;97.83;;
29280;SDS011;25048;49.590;11.026;2024-03-08T03:35:24;635.57;;;95.67;;
29280;SDS011;25048;49.590;11.026;2024-03-08T03:37:51;641.70;;;101.87;;
29280;SDS011;25048;49.590;11.026;2024-03-08T03:40:30;639.87;;;95.87;;
29280;SDS011;25048;49.590;11.026;2024-03-08T03:42:58;640.70;;;99.60;;
29280;SDS011;25048;49.590;11.026;2024-03-08T03:45:25;632.80;;;95.63;;
29280;SDS011;25048;49.590;11.026;2024-03-08T03:47:53;632.47;;;93.50;;
29280;SDS011;25048;49.590;11.026;2024-03-08T03:50:21;644.10;;;94.40;;
29280;SDS011;25048;49.590;11.026;2024-03-08T03:52:49;651.70;;;94.67;;
29280;SDS011;25048;49.590;11.026;2024-03-08T03:55:17;641.57;;;91.30;;
29280;SDS011;25048;49.590;11.026;2024-03-08T03:57:45;640.03;;;94.07;;
29280;SDS011;25048;49.590;11.026;2024-03-08T04:00:13;638.00;;;91.23;;
29280;SDS011;25048;49.590;11.026;2024-03-08T04:02:41;640.53;;;93.77;;
29280;SDS011;25048;49.590;11.026;2024-03-08T04:05:09;631.33;;;94.97;;
29280;SDS011;25048;49.590;11.026;2024-03-08T04:07:37;620.73;;;91.07;;
29280;SDS011;25048;49.590;11.026;2024-03-08T04:10:06;641.33;;;92.00;;
29280;SDS011;25048;49.590;11.026;2024-03-08T04:12:35;635.40;;;89.77;;
29280;SDS011;25048;49.590;11.026;2024-03-08T04:15:03;630.33;;;90.40;;
29280;SDS011;25048;49.590;11.026;2024-03-08T04:17:33;624.70;;;90.17;;
29280;SDS011;25048;49.590;11.026;2024-03-08T04:20:04;633.60;;;95.30;;
29280;SDS011;25048;49.590;11.026;2024-03-08T04:22:40;630.70;;;90.37;;
29280;SDS011;25048;49.590;11.026;2024-03-08T04:25:08;639.57;;;91.57;;
29280;SDS011;25048;49.590;11.026;2024-03-08T04:27:36;636.37;;;90.33;;
29280;SDS011;25048;49.590;11.026;2024-03-08T04:30:04;644.70;;;94.47;;
29280;SDS011;25048;49.590;11.026;2024-03-08T04:32:35;632.07;;;110.70;;
29280;SDS011;25048;49.590;11.026;2024-03-08T04:35:03;644.63;;;101.67;;
29280;SDS011;25048;49.590;11.026;2024-03-08T04:37:31;643.77;;;100.50;;
29280;SDS011;25048;49.590;11.026;2024-03-08T04:39:59;643.67;;;97.70;;
29280;SDS011;25048;49.590;11.026;2024-03-08T04:42:29;634.83;;;99.00;;
29280;SDS011;25048;49.590;11.026;2024-03-08T04:44:59;643.17;;;92.30;;
29280;SDS011;25048;49.590;11.026;2024-03-08T04:47:28;629.80;;;90.27;;
29280;SDS011;25048;49.590;11.026;2024-03-08T04:49:55;648.27;;;93.90;;
29280;SDS011;25048;49.590;11.026;2024-03-08T04:52:24;639.80;;;90.33;;
29280;SDS011;25048;49.590;11.026;2024-03-08T04:54:51;638.03;;;92.13;;
29280;SDS011;25048;49.590;11.026;2024-03-08T04:57:19;641.83;;;93.93;;
29280;SDS011;25048;49.590;11.026;2024-03-08T04:59:46;627.87;;;88.23;;
29280;SDS011;25048;49.590;11.026;2024-03-08T05:02:14;628.27;;;88.23;;
29280;SDS011;25048;49.590;11.026;2024-03-08T05:04:43;637.57;;;91.67;;
29280;SDS011;25048;49.590;11.026;2024-03-08T05:07:10;633.07;;;91.67;;
29280;SDS011;25048;49.590;11.026;2024-03-08T05:09:38;631.17;;;94.07;;
29280;SDS011;25048;49.590;11.026;2024-03-08T05:12:06;626.00;;;94.67;;
29280;SDS011;25048;49.590;11.026;2024-03-08T05:14:34;641.73;;;95.10;;
29280;SDS011;25048;49.590;11.026;2024-03-08T05:17:02;627.17;;;92.33;;
29280;SDS011;25048;49.590;11.026;2024-03-08T05:19:31;627.23;;;90.37;;
29280;SDS011;25048;49.590;11.026;2024-03-08T05:21:59;626.67;;;89.43;;
29280;SDS011;25048;49.590;11.026;2024-03-08T05:24:27;631.07;;;91.73;;
29280;SDS011;25048;49.590;11.026;2024-03-08T05:26:55;625.87;;;91.57;;
29280;SDS011;25048;49.590;11.026;2024-03-08T05:29:25;623.17;;;89.30;;
29280;SDS011;25048;49.590;11.026;2024-03-08T05:31:53;629.97;;;93.23;;
29280;SDS011;25048;49.590;11.026;2024-03-08T05:34:21;622.33;;;91.20;;
29280;SDS011;25048;49.590;11.026;2024-03-08T05:36:49;624.67;;;86.43;;
29280;SDS011;25048;49.590;11.026;2024-03-08T05:39:16;631.17;;;88.00;;
29280;SDS011;25048;49.590;11.026;2024-03-08T05:41:45;626.17;;;96.53;;
29280;SDS011;25048;49.590;11.026;2024-03-08T05:44:13;631.07;;;87.37;;
29280;SDS011;25048;49.590;11.026;2024-03-08T05:46:42;630.40;;;86.00;;
29280;SDS011;25048;49.590;11.026;2024-03-08T05:49:10;638.43;;;90.70;;
29280;SDS011;25048;49.590;11.026;2024-03-08T05:51:39;635.83;;;91.37;;
29280;SDS011;25048;49.590;11.026;2024-03-08T05:54:08;631.97;;;89.30;;
29280;SDS011;25048;49.590;11.026;2024-03-08T05:56:37;633.53;;;91.67;;
29280;SDS011;25048;49.590;11.026;2024-03-08T05:59:07;624.10;;;92.17;;
29280;SDS011;25048;49.590;11.026;2024-03-08T06:01:35;629.67;;;97.87;;
29280;SDS011;25048;49.590;11.026;2024-03-08T06:04:03;619.87;;;90.83;;
29280;SDS011;25048;49.590;11.026;2024-03-08T06:06:31;634.40;;;95.60;;
29280;SDS011;25048;49.590;11.026;2024-03-08T06:08:59;626.37;;;92.47;;
29280;SDS011;25048;49.590;11.026;2024-03-08T06:11:28;634.33;;;90.83;;
29280;SDS011;25048;49.590;11.026;2024-03-08T06:13:57;639.03;;;97.03;;
29280;SDS011;25048;49.590;11.026;2024-03-08T06:16:26;608.67;;;87.57;;
29280;SDS011;25048;49.590;11.026;2024-03-08T06:18:55;604.40;;;87.20;;
29280;SDS011;25048;49.590;11.026;2024-03-08T06:21:23;623.60;;;105.93;;
29280;SDS011;25048;49.590;11.026;2024-03-08T06:23:54;606.10;;;88.37;;
29280;SDS011;25048;49.590;11.026;2024-03-08T06:26:23;52.63;;;21.43;;
29280;SDS011;25048;49.590;11.026;2024-03-08T06:28:53;57.13;;;24.07;;
29280;SDS011;25048;49.590;11.026;2024-03-08T06:31:21;51.63;;;22.63;;
29280;SDS011;25048;49.590;11.026;2024-03-08T06:33:48;59.57;;;22.80;;
29280;SDS011;25048;49.590;11.026;2024-03-08T06:36:16;52.30;;;22.07;;
29280;SDS011;25048;49.590;11.026;2024-03-08T06:38:50;56.00;;;23.23;;
29280;SDS011;25048;49.590;11.026;2024-03-08T06:41:18;85.93;;;33.30;;
29280;SDS011;25048;49.590;11.026;2024-03-08T06:43:46;54.93;;;22.17;;
29280;SDS011;25048;49.590;11.026;2024-03-08T06:46:16;52.83;;;23.47;;
29280;SDS011;25048;49.590;11.026;2024-03-08T06:48:45;52.50;;;22.00;;
29280;SDS011;25048;49.590;11.026;2024-03-08T06:51:13;50.60;;;23.57;;
29280;SDS011;25048;49.590;11.026;2024-03-08T06:53:41;47.87;;;22.30;;
29280;SDS011;25048;49.590;11.026;2024-03-08T06:56:08;51.13;;;22.57;;
29280;SDS011;25048;49.590;11.026;2024-03-08T06:58:36;50.70;;;22.17;;
29280;SDS011;25048;49.590;11.026;2024-03-08T07:01:04;52.87;;;21.47;;
29280;SDS011;25048;49.590;11.026;2024-03-08T07:03:33;49.80;;;21.07;;
29280;SDS011;25048;49.590;11.026;2024-03-08T07:06:01;52.53;;;22.37;;
29280;SDS011;25048;49.590;11.026;2024-03-08T07:08:28;44.70;;;21.20;;
29280;SDS011;25048;49.590;11.026;2024-03-08T07:10:56;44.90;;;21.60;;
29280;SDS011;25048;49.590;11.026;2024-03-08T07:13:24;50.57;;;21.40;;
29280;SDS011;25048;49.590;11.026;2024-03-08T07:15:53;51.67;;;21.03;;
29280;SDS011;25048;49.590;11.026;2024-03-08T07:18:21;46.43;;;20.77;;
29280;SDS011;25048;49.590;11.026;2024-03-08T07:20:48;45.17;;;21.07;;
29280;SDS011;25048;49.590;11.026;2024-03-08T07:23:16;48.80;;;21.63;;
29280;SDS011;25048;49.590;11.026;2024-03-08T07:26:01;46.77;;;19.20;;
29280;SDS011;25048;49.590;11.026;2024-03-08T07:28:29;46.40;;;20.03;;
29280;SDS011;25048;49.590;11.026;2024-03-08T07:30:57;47.07;;;20.77;;
29280;SDS011;25048;49.590;11.026;2024-03-08T07:33:29;44.27;;;21.60;;
29280;SDS011;25048;49.590;11.026;2024-03-08T07:35:57;40.90;;;19.40;;
29280;SDS011;25048;49.590;11.026;2024-03-08T07:38:24;42.83;;;19.30;;
29280;SDS011;25048;49.590;11.026;2024-03-08T07:40:52;44.53;;;20.73;;
29280;SDS011;25048;49.590;11.026;2024-03-08T07:43:19;44.83;;;19.90;;
29280;SDS011;25048;49.590;11.026;2024-03-08T07:45:48;41.53;;;19.07;;
29280;SDS011;25048;49.590;11.026;2024-03-08T07:48:16;43.90;;;19.63;;
29280;SDS011;25048;49.590;11.026;2024-03-08T07:50:44;41.93;;;18.97;;
29280;SDS011;25048;49.590;11.026;2024-03-08T07:53:12;41.10;;;19.07;;
29280;SDS011;25048;49.590;11.026;2024-03-08T07:55:39;40.40;;;18.73;;
29280;SDS011;25048;49.590;11.026;2024-03-08T07:58:08;39.67;;;18.47;;
29280;SDS011;25048;49.590;11.026;2024-03-08T08:00:36;44.53;;;19.53;;
29280;SDS011;25048;49.590;11.026;2024-03-08T08:03:04;37.37;;;18.00;;
29280;SDS011;25048;49.590;11.026;2024-03-08T08:05:33;39.00;;;18.60;;
29280;SDS011;25048;49.590;11.026;2024-03-08T08:08:01;35.97;;;17.23;;
29280;SDS011;25048;49.590;11.026;2024-03-08T08:10:31;35.53;;;17.57;;
29280;SDS011;25048;49.590;11.026;2024-03-08T08:12:59;34.63;;;18.13;;
29280;SDS011;25048;49.590;11.026;2024-03-08T08:15:26;34.13;;;16.53;;
29280;SDS011;25048;49.590;11.026;2024-03-08T08:17:54;40.70;;;17.67;;
29280;SDS011;25048;49.590;11.026;2024-03-08T08:20:21;34.77;;;17.63;;
29280;SDS011;25048;49.590;11.026;2024-03-08T08:22:49;34.13;;;17.00;;
29280;SDS011;25048;49.590;11.026;2024-03-08T08:25:17;36.73;;;17.53;;
29280;SDS011;25048;49.590;11.026;2024-03-08T08:27:46;34.20;;;17.73;;
29280;SDS011;25048;49.590;11.026;2024-03-08T08:30:14;36.43;;;16.87;;
29280;SDS011;25048;49.590;11.026;2024-03-08T08:32:41;36.77;;;17.20;;
29280;SDS011;25048;49.590;11.026;2024-03-08T08:35:09;36.27;;;18.40;;
29280;SDS011;25048;49.590;11.026;2024-03-08T08:37:41;37.33;;;17.87;;
29280;SDS011;25048;49.590;11.026;2024-03-08T08:40:10;36.07;;;18.63;;
29280;SDS011;25048;49.590;11.026;2024-03-08T08:42:40;35.07;;;16.73;;
29280;SDS011;25048;49.590;11.026;2024-03-08T08:45:07;42.03;;;18.40;;
29280;SDS011;25048;49.590;11.026;2024-03-08T08:47:36;32.07;;;16.00;;
29280;SDS011;25048;49.590;11.026;2024-03-08T08:50:04;35.60;;;16.23;;
29280;SDS011;25048;49.590;11.026;2024-03-08T08:52:32;33.70;;;17.00;;
29280;SDS011;25048;49.590;11.026;2024-03-08T08:55:00;37.23;;;16.43;;
29280;SDS011;25048;49.590;11.026;2024-03-08T08:57:30;33.53;;;16.97;;
29280;SDS011;25048;49.590;11.026;2024-03-08T08:59:59;28.13;;;14.63;;
29280;SDS011;25048;49.590;11.026;2024-03-08T09:02:26;31.87;;;15.93;;
29280;SDS011;25048;49.590;11.026;2024-03-08T09:04:54;30.40;;;14.27;;
29280;SDS011;25048;49.590;11.026;2024-03-08T09:07:22;30.67;;;15.30;;
29280;SDS011;25048;49.590;11.026;2024-03-08T09:09:50;26.67;;;14.03;;
29280;SDS011;25048;49.590;11.026;2024-03-08T09:12:18;29.20;;;14.83;;
29280;SDS011;25048;49.590;11.026;2024-03-08T09:14:45;28.23;;;14.50;;
29280;SDS011;25048;49.590;11.026;2024-03-08T09:17:13;25.50;;;13.30;;
29280;SDS011;25048;49.590;11.026;2024-03-08T09:19:43;26.23;;;14.27;;
29280;SDS011;25048;49.590;11.026;2024-03-08T09:22:10;27.57;;;13.03;;
29280;SDS011;25048;49.590;11.026;2024-03-08T09:24:38;24.27;;;13.10;;
29280;SDS011;25048;49.590;11.026;2024-03-08T09:27:06;27.47;;;13.87;;
29280;SDS011;25048;49.590;11.026;2024-03-08T09:29:35;24.30;;;13.10;;
29280;SDS011;25048;49.590;11.026;2024-03-08T09:32:03;26.53;;;13.63;;
29280;SDS011;25048;49.590;11.026;2024-03-08T09:34:30;32.87;;;15.10;;
29280;SDS011;25048;49.590;11.026;2024-03-08T09:36:58;31.97;;;13.40;;
29280;SDS011;25048;49.590;11.026;2024-03-08T09:39:26;26.27;;;12.90;;
29280;SDS011;25048;49.590;11.026;2024-03-08T09:41:53;23.53;;;12.27;;
29280;SDS011;25048;49.590;11.026;2024-03-08T09:44:21;24.43;;;13.33;;
29280;SDS011;25048;49.590;11.026;2024-03-08T09:46:50;26.40;;;13.37;;
29280;SDS011;25048;49.590;11.026;2024-03-08T09:49:19;25.67;;;12.70;;
29280;SDS011;25048;49.590;11.026;2024-03-08T09:51:46;27.63;;;13.93;;
29280;SDS011;25048;49.590;11.026;2024-03-08T09:54:17;28.63;;;13.70;;
29280;SDS011;25048;49.590;11.026;2024-03-08T09:56:46;24.40;;;14.23;;
29280;SDS011;25048;49.590;11.026;2024-03-08T09:59:15;24.43;;;13.03;;
29280;SDS011;25048;49.590;11.026;2024-03-08T10:01:50;26.70;;;14.07;;
29280;SDS011;25048;49.590;11.026;2024-03-08T10:04:20;27.73;;;13.30;;
29280;SDS011;25048;49.590;11.026;2024-03-08T10:06:48;26.40;;;13.30;;
29280;SDS011;25048;49.590;11.026;2024-03-08T10:09:16;23.80;;;13.23;;
29280;SDS011;25048;49.590;11.026;2024-03-08T10:11:45;24.23;;;12.73;;
29280;SDS011;25048;49.590;11.026;2024-03-08T10:14:12;28.30;;;13.40;;
29280;SDS011;25048;49.590;11.026;2024-03-08T10:16:40;26.20;;;14.10;;
29280;SDS011;25048;49.590;11.026;2024-03-08T10:19:07;25.30;;;12.77;;
29280;SDS011;25048;49.590;11.026;2024-03-08T10:21:46;24.43;;;12.27;;
29280;SDS011;25048;49.590;11.026;2024-03-08T10:24:15;27.87;;;13.23;;
29280;SDS011;25048;49.590;11.026;2024-03-08T10:26:43;22.60;;;12.43;;
29280;SDS011;25048;49.590;11.026;2024-03-08T10:29:12;24.13;;;13.13;;
29280;SDS011;25048;49.590;11.026;2024-03-08T10:31:44;26.67;;;13.07;;
29280;SDS011;25048;49.590;11.026;2024-03-08T10:34:12;28.03;;;12.07;;
29280;SDS011;25048;49.590;11.026;2024-03-08T10:36:39;19.30;;;11.93;;
29280;SDS011;25048;49.590;11.026;2024-03-08T10:39:12;21.40;;;11.90;;
29280;SDS011;25048;49.590;11.026;2024-03-08T10:41:41;21.00;;;11.30;;
29280;SDS011;25048;49.590;11.026;2024-03-08T10:44:59;21.83;;;11.23;;
29280;SDS011;25048;49.590;11.026;2024-03-08T10:47:03;20.83;;;11.10;;
29280;SDS011;25048;49.590;11.026;2024-03-08T10:49:46;22.13;;;11.70;;
29280;SDS011;25048;49.590;11.026;2024-03-08T10:52:10;25.60;;;10.83;;
29280;SDS011;25048;49.590;11.026;2024-03-08T10:54:39;22.03;;;11.17;;
29280;SDS011;25048;49.590;11.026;2024-03-08T10:57:08;18.63;;;10.70;;
29280;SDS011;25048;49.590;11.026;2024-03-08T10:59:38;20.97;;;10.97;;
29280;SDS011;25048;49.590;11.026;2024-03-08T11:02:08;19.87;;;10.30;;
29280;SDS011;25048;49.590;11.026;2024-03-08T11:04:38;17.57;;;10.00;;
29280;SDS011;25048;49.590;11.026;2024-03-08T11:07:06;20.93;;;10.17;;
29280;SDS011;25048;49.590;11.026;2024-03-08T11:09:37;17.30;;;9.97;;
29280;SDS011;25048;49.590;11.026;2024-03-08T11:15:09;19.60;;;10.80;;
29280;SDS011;25048;49.590;11.026;2024-03-08T11:20:10;20.90;;;10.77;;
29280;SDS011;25048;49.590;11.026;2024-03-08T11:22:42;17.07;;;10.00;;
29280;SDS011;25048;49.590;11.026;2024-03-08T11:25:31;17.27;;;10.03;;
29280;SDS011;25048;49.590;11.026;2024-03-08T11:28:15;20.72;;;9.80;;
29280;SDS011;25048;49.590;11.026;2024-03-08T11:30:45;17.98;;;10.43;;
29280;SDS011;25048;49.590;11.026;2024-03-08T11:33:28;19.45;;;10.38;;
29280;SDS011;25048;49.590;11.026;2024-03-08T11:36:12;16.85;;;9.45;;
29280;SDS011;25048;49.590;11.026;2024-03-08T11:38:48;17.20;;;9.88;;
29280;SDS011;25048;49.590;11.026;2024-03-08T11:41:13;16.30;;;9.73;;
29280;SDS011;25048;49.590;11.026;2024-03-08T11:43:41;16.95;;;10.08;;
29280;SDS011;25048;49.590;11.026;2024-03-08T11:46:09;16.00;;;9.47;;
29280;SDS011;25048;49.590;11.026;2024-03-08T11:48:39;18.40;;;9.13;;
29280;SDS011;25048;49.590;11.026;2024-03-08T11:51:15;16.35;;;9.03;;
29280;SDS011;25048;49.590;11.026;2024-03-08T11:53:39;14.40;;;8.93;;
29280;SDS011;25048;49.590;11.026;2024-03-08T11:56:08;14.73;;;8.38;;
29280;SDS011;25048;49.590;11.026;2024-03-08T11:58:40;17.25;;;9.20;;
29280;SDS011;25048;49.590;11.026;2024-03-08T12:01:11;17.00;;;9.95;;
29280;SDS011;25048;49.590;11.026;2024-03-08T12:03:39;13.45;;;8.48;;
29280;SDS011;25048;49.590;11.026;2024-03-08T12:06:09;16.35;;;9.08;;
29280;SDS011;25048;49.590;11.026;2024-03-08T12:08:39;24.30;;;9.18;;
29280;SDS011;25048;49.590;11.026;2024-03-08T12:11:06;18.17;;;10.25;;
29280;SDS011;25048;49.590;11.026;2024-03-08T12:13:35;16.23;;;8.75;;
29280;SDS011;25048;49.590;11.026;2024-03-08T12:16:03;16.02;;;8.98;;
29280;SDS011;25048;49.590;11.026;2024-03-08T12:18:37;16.23;;;9.50;;
29280;SDS011;25048;49.590;11.026;2024-03-08T12:21:09;14.47;;;8.68;;
29280;SDS011;25048;49.590;11.026;2024-03-08T12:23:40;16.17;;;8.60;;
29280;SDS011;25048;49.590;11.026;2024-03-08T12:26:11;15.43;;;8.53;;
29280;SDS011;25048;49.590;11.026;2024-03-08T12:28:41;14.90;;;9.18;;
29280;SDS011;25048;49.590;11.026;2024-03-08T12:31:14;19.32;;;9.83;;
29280;SDS011;25048;49.590;11.026;2024-03-08T12:33:49;16.02;;;9.68;;
29280;SDS011;25048;49.590;11.026;2024-03-08T12:36:19;15.60;;;8.53;;
29280;SDS011;25048;49.590;11.026;2024-03-08T12:38:47;19.20;;;9.83;;
29280;SDS011;25048;49.590;11.026;2024-03-08T12:41:15;16.05;;;8.60;;
29280;SDS011;25048;49.590;11.026;2024-03-08T12:43:47;18.85;;;9.68;;
29280;SDS011;25048;49.590;11.026;2024-03-08T12:46:15;16.27;;;8.68;;
29280;SDS011;25048;49.590;11.026;2024-03-08T12:48:43;16.12;;;9.58;;
29280;SDS011;25048;49.590;11.026;2024-03-08T12:51:16;15.15;;;8.80;;
29280;SDS011;25048;49.590;11.026;2024-03-08T12:53:46;15.00;;;7.95;;
29280;SDS011;25048;49.590;11.026;2024-03-08T12:56:31;13.70;;;8.40;;
29280;SDS011;25048;49.590;11.026;2024-03-08T12:59:00;17.82;;;8.93;;
29280;SDS011;25048;49.590;11.026;2024-03-08T13:01:28;15.90;;;8.78;;
29280;SDS011;25048;49.590;11.026;2024-03-08T13:03:58;16.87;;;8.45;;
29280;SDS011;25048;49.590;11.026;2024-03-08T13:06:28;16.50;;;7.97;;
29280;SDS011;25048;49.590;11.026;2024-03-08T13:08:56;18.05;;;9.30;;
29280;SDS011;25048;49.590;11.026;2024-03-08T13:11:24;13.75;;;8.08;;
29280;SDS011;25048;49.590;11.026;2024-03-08T13:13:53;12.60;;;8.25;;
29280;SDS011;25048;49.590;11.026;2024-03-08T13:16:20;14.78;;;8.68;;
29280;SDS011;25048;49.590;11.026;2024-03-08T13:18:49;14.38;;;7.78;;
29280;SDS011;25048;49.590;11.026;2024-03-08T13:21:18;15.23;;;8.38;;
29280;SDS011;25048;49.590;11.026;2024-03-08T13:23:45;11.78;;;7.97;;
29280;SDS011;25048;49.590;11.026;2024-03-08T13:26:15;13.50;;;7.62;;
29280;SDS011;25048;49.590;11.026;2024-03-08T13:28:46;13.88;;;7.45;;
29280;SDS011;25048;49.590;11.026;2024-03-08T13:31:18;14.40;;;7.83;;
29280;SDS011;25048;49.590;11.026;2024-03-08T13:33:46;12.30;;;7.03;;
29280;SDS011;25048;49.590;11.026;2024-03-08T13:36:14;13.43;;;7.92;;
29280;SDS011;25048;49.590;11.026;2024-03-08T13:38:42;11.85;;;6.92;;
29280;SDS011;25048;49.590;11.026;2024-03-08T13:41:11;12.53;;;7.35;;
29280;SDS011;25048;49.590;11.026;2024-03-08T13:43:43;10.60;;;6.67;;
29280;SDS011;25048;49.590;11.026;2024-03-08T13:46:17;13.45;;;7.42;;
29280;SDS011;25048;49.590;11.026;2024-03-08T13:48:45;12.65;;;6.72;;
29280;SDS011;25048;49.590;11.026;2024-03-08T13:51:13;11.22;;;6.67;;
29280;SDS011;25048;49.590;11.026;2024-03-08T13:53:43;10.00;;;6.22;;
29280;SDS011;25048;49.590;11.026;2024-03-08T13:56:10;10.23;;;6.28;;
29280;SDS011;25048;49.590;11.026;2024-03-08T13:58:38;11.68;;;7.15;;
29280;SDS011;25048;49.590;11.026;2024-03-08T14:01:06;11.78;;;6.83;;
29280;SDS011;25048;49.590;11.026;2024-03-08T14:03:35;13.20;;;6.55;;
29280;SDS011;25048;49.590;11.026;2024-03-08T14:06:04;12.40;;;7.33;;
29280;SDS011;25048;49.590;11.026;2024-03-08T14:08:33;14.23;;;6.47;;
29280;SDS011;25048;49.590;11.026;2024-03-08T14:11:02;11.18;;;6.97;;
29280;SDS011;25048;49.590;11.026;2024-03-08T14:13:31;11.05;;;7.45;;
29280;SDS011;25048;49.590;11.026;2024-03-08T14:15:59;11.83;;;7.08;;
29280;SDS011;25048;49.590;11.026;2024-03-08T14:18:27;12.82;;;7.55;;